createdAt,value
2022-10-26T00:06:16.782Z,7
2022-10-26T00:34:53.395Z,5
2022-10-26T01:03:41.383Z,4
2022-10-26T01:32:19.850Z,6
2022-10-26T02:01:00.314Z,6
2022-10-26T02:29:40.038Z,4
2022-10-26T02:58:19.600Z,4
2022-10-26T03:27:01.265Z,4
2022-10-26T03:55:18.348Z,10
2022-10-26T04:23:50.395Z,4
2022-10-26T04:52:22.026Z,7
2022-10-26T05:21:07.241Z,9
2022-10-26T05:50:03.254Z,7
2022-10-26T06:18:50.838Z,8
2022-10-26T06:47:32.263Z,10
2022-10-26T07:16:06.042Z,8
2022-10-26T07:44:48.440Z,16
2022-10-26T08:13:32.781Z,13
2022-10-26T08:41:52.016Z,9
2022-10-26T09:11:00.320Z,12
2022-10-26T09:39:28.897Z,14
2022-10-26T10:08:20.456Z,11
2022-10-26T10:36:58.588Z,11
2022-10-26T11:05:38.542Z,10
2022-10-26T11:34:25.183Z,8
2022-10-26T12:03:00.828Z,8
2022-10-26T12:31:51.897Z,8
2022-10-26T13:00:41.881Z,9
2022-10-26T13:29:12.951Z,10
2022-10-26T13:57:45.905Z,10
2022-10-26T14:26:27.495Z,10
2022-10-26T14:55:01.142Z,9
2022-10-26T15:24:15.960Z,10
2022-10-26T15:52:38.119Z,12
2022-10-26T16:21:23.037Z,10
2022-10-26T16:49:46.959Z,10
2022-10-26T17:18:38.846Z,11
2022-10-26T17:47:17.621Z,22
2022-10-26T18:15:54.432Z,28
2022-10-26T18:44:33.584Z,16
2022-10-26T19:13:09.500Z,16
2022-10-26T19:41:39.410Z,13
2022-10-26T20:09:58.439Z,11
2022-10-26T20:38:29.271Z,15
2022-10-26T21:07:13.573Z,10
2022-10-26T21:36:08.607Z,11
2022-10-26T22:04:51.712Z,12
2022-10-26T22:33:36.562Z,14
2022-10-26T23:02:16.417Z,16
2022-10-26T23:31:05.141Z,13
2022-10-26T23:59:54.844Z,11
